createdAt,value
2022-09-21T00:01:25.007Z,102498.25
2022-09-21T00:04:00.295Z,102500.09
2022-09-21T00:06:28.961Z,102500.97
2022-09-21T00:08:58.197Z,102496.44
2022-09-21T00:11:28.088Z,102499.81
2022-09-21T00:14:07.278Z,102501.44
2022-09-21T00:16:35.239Z,102510.22
2022-09-21T00:19:02.299Z,102503.84
2022-09-21T00:21:29.052Z,102496.47
2022-09-21T00:23:57.421Z,102503.63
2022-09-21T00:26:26.542Z,102495.50
2022-09-21T00:28:55.408Z,102498.13
2022-09-21T00:31:22.742Z,102502.56
2022-09-21T00:33:53.051Z,102502.47
2022-09-21T00:36:22.444Z,102495.31
2022-09-21T00:38:54.833Z,102491.72
2022-09-21T00:41:22.394Z,102490.00
2022-09-21T00:44:18.523Z,102495.50
2022-09-21T00:46:48.205Z,102492.78
2022-09-21T00:49:15.640Z,102492.03
2022-09-21T00:51:42.931Z,102492.13
2022-09-21T00:54:16.377Z,102495.91
2022-09-21T00:56:44.697Z,102493.31
2022-09-21T00:59:13.684Z,102497.00
2022-09-21T01:01:40.342Z,102506.19
2022-09-21T01:04:13.701Z,102496.44
2022-09-21T01:06:41.347Z,102505.59
2022-09-21T01:09:09.082Z,102492.31
2022-09-21T01:11:47.176Z,102500.63
2022-09-21T01:14:53.538Z,102496.50
2022-09-21T01:17:41.781Z,102503.84
2022-09-21T01:20:14.049Z,102503.94
2022-09-21T01:23:16.990Z,102497.88
2022-09-21T01:26:02.194Z,102503.28
2022-09-21T01:28:38.217Z,102507.84
2022-09-21T01:31:12.068Z,102506.09
2022-09-21T01:33:51.456Z,102505.31
2022-09-21T01:37:08.435Z,102502.91
2022-09-21T01:39:37.829Z,102508.53
2022-09-21T01:42:06.946Z,102510.56
2022-09-21T01:44:38.346Z,102502.44
2022-09-21T01:47:09.856Z,102495.19
2022-09-21T01:49:41.588Z,102496.94
2022-09-21T01:52:31.489Z,102500.59
2022-09-21T01:55:33.319Z,102502.63
2022-09-21T01:58:12.221Z,102501.78
2022-09-21T02:00:41.023Z,102499.25
2022-09-21T02:03:13.819Z,102505.75
2022-09-21T02:05:42.547Z,102499.75
2022-09-21T02:08:10.142Z,102498.13
2022-09-21T02:10:42.816Z,102505.38
2022-09-21T02:13:10.001Z,102502.75
2022-09-21T02:15:37.369Z,102510.19
2022-09-21T02:18:29.710Z,102508.84
2022-09-21T02:21:03.806Z,102506.44
2022-09-21T02:23:34.238Z,102505.91
2022-09-21T02:26:13.289Z,102505.44
2022-09-21T02:28:42.886Z,102505.91
2022-09-21T02:31:33.330Z,102501.16
2022-09-21T02:34:14.069Z,102504.16
2022-09-21T02:36:53.362Z,102506.16
2022-09-21T02:39:29.724Z,102502.69
2022-09-21T02:42:20.262Z,102497.47
2022-09-21T02:45:19.041Z,102494.97
2022-09-21T02:47:56.769Z,102506.75
2022-09-21T02:50:32.967Z,102501.47
2022-09-21T02:53:02.813Z,102495.41
2022-09-21T02:55:31.194Z,102501.84
2022-09-21T02:57:59.070Z,102493.94
2022-09-21T03:00:25.619Z,102496.72
2022-09-21T03:02:52.151Z,102495.28
2022-09-21T03:05:19.671Z,102497.28
2022-09-21T03:07:46.207Z,102498.53
2022-09-21T03:10:12.715Z,102496.94
2022-09-21T03:12:39.321Z,102489.00
2022-09-21T03:15:06.345Z,102502.53
2022-09-21T03:17:32.864Z,102504.25
2022-09-21T03:19:59.344Z,102504.25
2022-09-21T03:22:25.869Z,102503.47
2022-09-21T03:24:57.549Z,102511.75
2022-09-21T03:27:24.531Z,102506.63
2022-09-21T03:29:51.060Z,102509.59
2022-09-21T03:32:17.766Z,102510.94
2022-09-21T03:34:45.649Z,102515.63
2022-09-21T03:37:12.174Z,102517.66
2022-09-21T03:39:38.710Z,102521.41
2022-09-21T03:42:05.344Z,102517.91
2022-09-21T03:44:31.973Z,102519.84
2022-09-21T03:46:58.534Z,102520.78
2022-09-21T03:49:25.362Z,102516.44
2022-09-21T03:51:51.884Z,102531.00
2022-09-21T03:54:19.939Z,102528.63
2022-09-21T03:56:46.525Z,102527.94
2022-09-21T03:59:14.394Z,102528.13
2022-09-21T04:01:42.208Z,102527.34
2022-09-21T04:04:12.994Z,102528.38
2022-09-21T04:06:39.525Z,102521.41
2022-09-21T04:09:06.282Z,102523.31
2022-09-21T04:11:33.271Z,102521.75
2022-09-21T04:14:01.918Z,102520.88
2022-09-21T04:16:28.451Z,102518.25
2022-09-21T04:18:54.978Z,102521.97
2022-09-21T04:21:24.578Z,102517.53
2022-09-21T04:23:52.649Z,102518.41
2022-09-21T04:26:26.275Z,102517.72
2022-09-21T04:28:54.089Z,102521.47
2022-09-21T04:31:21.622Z,102529.72
2022-09-21T04:33:50.448Z,102524.59
2022-09-21T04:36:22.118Z,102524.00
2022-09-21T04:38:49.017Z,102527.06
2022-09-21T04:41:16.464Z,102532.63
2022-09-21T04:43:47.487Z,102536.34
2022-09-21T04:46:17.149Z,102532.94
2022-09-21T04:48:43.701Z,102532.16
2022-09-21T04:51:11.231Z,102527.81
2022-09-21T04:53:43.027Z,102538.75
2022-09-21T04:56:12.953Z,102538.94
2022-09-21T04:58:39.624Z,102540.03
2022-09-21T05:01:07.715Z,102543.84
2022-09-21T05:03:37.674Z,102545.59
2022-09-21T05:06:04.675Z,102538.38
2022-09-21T05:08:49.935Z,102541.94
2022-09-21T05:11:22.766Z,102550.13
2022-09-21T05:13:50.942Z,102550.22
2022-09-21T05:16:18.759Z,102550.28
2022-09-21T05:18:46.100Z,102550.28
2022-09-21T05:21:14.321Z,102553.06
2022-09-21T05:23:42.238Z,102558.53
2022-09-21T05:26:08.813Z,102558.78
2022-09-21T05:28:39.838Z,102557.19
2022-09-21T05:31:31.631Z,102552.00
2022-09-21T05:34:12.050Z,102559.41
2022-09-21T05:36:41.554Z,102569.38
2022-09-21T05:39:08.718Z,102569.53
2022-09-21T05:41:35.717Z,102573.19
2022-09-21T05:44:05.791Z,102573.25
2022-09-21T05:46:35.064Z,102575.16
2022-09-21T05:49:27.238Z,102582.38
2022-09-21T05:52:11.824Z,102579.69
2022-09-21T05:54:41.789Z,102577.06
2022-09-21T05:57:17.459Z,102584.44
2022-09-21T06:00:12.089Z,102589.03
2022-09-21T06:03:07.523Z,102590.94
2022-09-21T06:05:34.710Z,102594.56
2022-09-21T06:08:01.372Z,102597.28
2022-09-21T06:10:33.633Z,102599.97
2022-09-21T06:13:00.553Z,102602.66
2022-09-21T06:15:27.421Z,102599.97
2022-09-21T06:17:54.010Z,102608.84
2022-09-21T06:20:20.593Z,102608.69
2022-09-21T06:22:47.106Z,102613.91
2022-09-21T06:25:15.285Z,102612.91
2022-09-21T06:27:41.729Z,102614.56
2022-09-21T06:30:08.518Z,102606.31
2022-09-21T06:32:35.058Z,102610.69
2022-09-21T06:35:01.667Z,102604.25
2022-09-21T06:37:28.154Z,102610.38
2022-09-21T06:39:54.670Z,102612.84
2022-09-21T06:42:21.193Z,102612.78
2022-09-21T06:44:49.477Z,102608.16
2022-09-21T06:47:15.958Z,102603.50
2022-09-21T06:49:42.803Z,102608.56
2022-09-21T06:52:09.443Z,102611.88
2022-09-21T06:54:36.806Z,102607.91
2022-09-21T06:57:03.502Z,102608.31
2022-09-21T06:59:29.986Z,102598.94
2022-09-21T07:01:58.307Z,102595.59
2022-09-21T07:04:25.382Z,102598.28
2022-09-21T07:06:51.996Z,102602.75
2022-09-21T07:12:07.050Z,102608.69
2022-09-21T07:14:34.567Z,102601.03
2022-09-21T07:17:01.055Z,102608.63
2022-09-21T07:19:27.562Z,102603.81
2022-09-21T07:21:55.029Z,102607.69
2022-09-21T07:24:25.720Z,102603.44
2022-09-21T07:26:52.929Z,102598.53
2022-09-21T07:29:19.390Z,102601.81
2022-09-21T07:31:46.036Z,102604.16
2022-09-21T07:34:13.760Z,102602.84
2022-09-21T07:36:40.521Z,102603.38
2022-09-21T07:39:09.482Z,102604.09
2022-09-21T07:41:36.577Z,102593.97
2022-09-21T07:44:05.106Z,102596.28
2022-09-21T07:46:31.781Z,102603.84
2022-09-21T07:48:58.331Z,102602.78
2022-09-21T07:51:25.244Z,102590.09
2022-09-21T07:53:56.814Z,102594.31
2022-09-21T07:56:24.305Z,102594.31
2022-09-21T07:59:05.926Z,102588.53
2022-09-21T08:01:38.365Z,102586.22
2022-09-21T08:04:09.734Z,102593.78
2022-09-21T08:06:39.809Z,102595.59
2022-09-21T08:09:06.800Z,102585.28
2022-09-21T08:11:33.690Z,102591.81
2022-09-21T08:14:03.790Z,102588.94
2022-09-21T08:16:31.713Z,102591.34
2022-09-21T08:18:58.307Z,102586.19
2022-09-21T08:21:24.817Z,102590.91
2022-09-21T08:23:52.434Z,102591.91
2022-09-21T08:26:19.950Z,102591.06
2022-09-21T08:28:51.064Z,102584.88
2022-09-21T08:31:20.137Z,102584.91
2022-09-21T08:33:49.792Z,102592.94
2022-09-21T08:36:16.954Z,102592.78
2022-09-21T08:38:43.899Z,102590.53
2022-09-21T08:41:16.332Z,102592.84
2022-09-21T08:44:28.054Z,102595.81
2022-09-21T08:47:19.126Z,102588.94
2022-09-21T08:49:59.379Z,102590.88
2022-09-21T08:52:26.587Z,102589.38
2022-09-21T08:55:07.286Z,102590.31
2022-09-21T08:57:34.421Z,102593.97
2022-09-21T09:00:02.246Z,102588.88
2022-09-21T09:02:37.808Z,102591.94
2022-09-21T09:05:25.846Z,102595.59
2022-09-21T09:08:05.859Z,102596.38
2022-09-21T09:11:16.963Z,102594.09
2022-09-21T09:14:21.465Z,102592.84
2022-09-21T09:16:57.320Z,102604.75
2022-09-21T09:19:38.433Z,102600.56
2022-09-21T09:22:12.324Z,102597.84
2022-09-21T09:25:06.018Z,102595.50
2022-09-21T09:27:40.337Z,102597.69
2022-09-21T09:30:12.541Z,102604.91
2022-09-21T09:33:00.396Z,102599.56
2022-09-21T09:35:36.353Z,102593.44
2022-09-21T09:38:15.860Z,102599.97
2022-09-21T09:40:54.885Z,102602.59
2022-09-21T09:43:56.207Z,102604.41
2022-09-21T09:46:25.843Z,102609.91
2022-09-21T09:49:09.252Z,102602.88
2022-09-21T09:51:37.538Z,102605.94
2022-09-21T09:54:14.957Z,102602.34
2022-09-21T09:56:42.261Z,102605.97
2022-09-21T09:59:23.123Z,102612.91
2022-09-21T10:02:00.918Z,102609.56
2022-09-21T10:04:30.615Z,102599.06
2022-09-21T10:06:57.183Z,102602.94
2022-09-21T10:09:34.026Z,102596.88
2022-09-21T10:12:14.904Z,102599.16
2022-09-21T10:14:53.555Z,102594.81
2022-09-21T10:17:20.430Z,102599.84
2022-09-21T10:19:47.154Z,102597.53
2022-09-21T10:22:20.327Z,102596.94
2022-09-21T10:24:54.254Z,102597.78
2022-09-21T10:27:34.429Z,102598.53
2022-09-21T10:30:01.410Z,102594.78
2022-09-21T10:32:29.620Z,102590.63
2022-09-21T10:35:08.459Z,102592.09
2022-09-21T10:37:41.340Z,102581.88
2022-09-21T10:40:19.823Z,102576.59
2022-09-21T10:42:49.029Z,102588.59
2022-09-21T10:45:17.573Z,102584.28
2022-09-21T10:47:55.980Z,102581.69
2022-09-21T10:50:30.018Z,102577.66
2022-09-21T10:53:02.216Z,102576.50
2022-09-21T10:55:32.022Z,102573.31
2022-09-21T10:57:59.638Z,102571.88
2022-09-21T11:00:35.315Z,102568.66
2022-09-21T11:03:26.230Z,102569.81
2022-09-21T11:05:54.021Z,102573.69
2022-09-21T11:08:32.894Z,102572.25
2022-09-21T11:11:24.470Z,102571.53
2022-09-21T11:14:01.048Z,102570.66
2022-09-21T11:16:44.625Z,102574.13
2022-09-21T11:19:21.277Z,102576.44
2022-09-21T11:22:03.119Z,102572.56
2022-09-21T11:24:52.550Z,102573.69
2022-09-21T11:27:36.249Z,102572.56
2022-09-21T11:30:14.099Z,102564.22
2022-09-21T11:33:02.247Z,102563.34
2022-09-21T11:35:52.926Z,102573.41
2022-09-21T11:38:34.331Z,102567.53
2022-09-21T11:41:27.300Z,102562.81
2022-09-21T11:44:16.382Z,102562.25
2022-09-21T11:47:07.269Z,102559.50
2022-09-21T11:49:42.650Z,102561.38
2022-09-21T11:52:21.384Z,102559.09
2022-09-21T11:55:00.759Z,102549.16
2022-09-21T11:57:42.638Z,102551.47
2022-09-21T12:00:17.175Z,102538.94
2022-09-21T12:02:53.067Z,102540.94
2022-09-21T12:05:28.688Z,102543.97
2022-09-21T12:08:10.376Z,102544.06
2022-09-21T12:10:59.932Z,102540.19
2022-09-21T12:13:56.031Z,102537.84
2022-09-21T12:17:04.667Z,102536.41
2022-09-21T12:19:55.911Z,102537.41
2022-09-21T12:22:28.340Z,102537.09
2022-09-21T12:25:02.607Z,102524.84
2022-09-21T12:27:40.378Z,102519.59
2022-09-21T12:30:19.422Z,102519.88
2022-09-21T12:32:53.394Z,102518.69
2022-09-21T12:35:26.301Z,102511.91
2022-09-21T12:38:16.470Z,102508.53
2022-09-21T12:41:20.264Z,102508.19
2022-09-21T12:44:05.096Z,102503.72
2022-09-21T12:46:38.837Z,102495.94
2022-09-21T12:49:21.244Z,102495.09
2022-09-21T12:51:56.959Z,102490.16
2022-09-21T12:54:45.448Z,102490.59
2022-09-21T13:00:22.276Z,102490.72
2022-09-21T13:03:01.359Z,102486.91
2022-09-21T13:05:27.836Z,102484.06
2022-09-21T13:08:12.291Z,102486.03
2022-09-21T13:11:05.647Z,102483.34
2022-09-21T13:13:36.066Z,102487.19
2022-09-21T13:16:05.495Z,102485.88
2022-09-21T13:18:36.823Z,102485.25
2022-09-21T13:21:18.444Z,102479.34
2022-09-21T13:24:01.345Z,102472.59
2022-09-21T13:26:38.952Z,102469.72
2022-09-21T13:29:34.260Z,102476.66
2022-09-21T13:32:23.798Z,102475.34
2022-09-21T13:35:33.246Z,102474.94
2022-09-21T13:38:34.424Z,102467.22
2022-09-21T13:41:31.528Z,102462.25
2022-09-21T13:44:41.034Z,102468.81
2022-09-21T13:47:09.004Z,102465.91
2022-09-21T13:49:43.301Z,102458.84
2022-09-21T13:52:15.749Z,102458.97
2022-09-21T13:54:52.210Z,102455.69
2022-09-21T13:57:32.161Z,102456.72
2022-09-21T14:00:19.870Z,102459.28
2022-09-21T14:03:00.495Z,102450.00
2022-09-21T14:05:43.221Z,102444.97
2022-09-21T14:08:15.672Z,102451.50
2022-09-21T14:10:57.303Z,102447.72
2022-09-21T14:13:37.662Z,102439.78
2022-09-21T14:16:36.414Z,102437.03
2022-09-21T14:19:29.575Z,102439.16
2022-09-21T14:22:08.395Z,102437.75
2022-09-21T14:24:51.274Z,102437.03
2022-09-21T14:27:36.790Z,102428.63
2022-09-21T14:30:22.249Z,102437.22
2022-09-21T14:33:00.838Z,102426.38
2022-09-21T14:35:34.056Z,102432.75
2022-09-21T14:38:07.910Z,102429.47
2022-09-21T14:40:42.166Z,102425.16
2022-09-21T14:43:14.868Z,102426.53
2022-09-21T14:46:12.149Z,102426.72
2022-09-21T14:48:52.075Z,102420.16
2022-09-21T14:51:18.544Z,102424.09
2022-09-21T14:54:04.472Z,102420.97
2022-09-21T14:56:38.965Z,102422.84
2022-09-21T14:59:38.366Z,102420.44
2022-09-21T15:02:18.033Z,102413.53
2022-09-21T15:05:12.681Z,102410.59
2022-09-21T15:08:03.438Z,102409.91
2022-09-21T15:10:55.310Z,102404.84
2022-09-21T15:14:06.329Z,102407.72
2022-09-21T15:16:42.152Z,102406.41
2022-09-21T15:19:17.729Z,102404.59
2022-09-21T15:21:49.986Z,102397.34
2022-09-21T15:24:20.647Z,102386.84
2022-09-21T15:26:49.893Z,102394.53
2022-09-21T15:29:27.816Z,102389.66
2022-09-21T15:31:54.806Z,102384.13
2022-09-21T15:34:23.492Z,102383.31
2022-09-21T15:36:52.073Z,102385.97
2022-09-21T15:39:28.673Z,102388.34
2022-09-21T15:42:10.513Z,102380.16
2022-09-21T15:44:39.479Z,102379.22
2022-09-21T15:47:12.468Z,102382.59
2022-09-21T15:49:39.589Z,102384.06
2022-09-21T15:52:13.566Z,102382.97
2022-09-21T15:54:53.308Z,102383.41
2022-09-21T15:57:40.307Z,102374.66
2022-09-21T16:00:15.973Z,102377.53
2022-09-21T16:02:51.811Z,102380.59
2022-09-21T16:05:22.427Z,102375.88
2022-09-21T16:07:49.057Z,102378.19
2022-09-21T16:10:30.494Z,102376.75
2022-09-21T16:13:22.967Z,102379.66
2022-09-21T16:16:08.181Z,102378.38
2022-09-21T16:18:49.250Z,102377.69
2022-09-21T16:21:15.829Z,102385.34
2022-09-21T16:23:45.336Z,102378.56
2022-09-21T16:26:23.478Z,102378.31
2022-09-21T16:28:57.088Z,102371.56
2022-09-21T16:31:33.064Z,102373.16
2022-09-21T16:34:36.649Z,102372.50
2022-09-21T16:37:28.045Z,102378.16
2022-09-21T16:39:56.840Z,102380.75
2022-09-21T16:42:31.177Z,102378.88
2022-09-21T16:44:59.697Z,102378.19
2022-09-21T16:47:27.685Z,102380.78
2022-09-21T16:50:01.320Z,102387.84
2022-09-21T16:52:29.583Z,102392.31
2022-09-21T16:55:00.173Z,102385.84
2022-09-21T16:57:26.727Z,102390.28
2022-09-21T16:59:53.673Z,102388.28
2022-09-21T17:02:20.214Z,102387.25
2022-09-21T17:04:47.913Z,102383.50
2022-09-21T17:07:15.200Z,102396.00
2022-09-21T17:09:46.207Z,102388.78
2022-09-21T17:12:15.219Z,102392.63
2022-09-21T17:14:46.766Z,102384.41
2022-09-21T17:17:23.951Z,102387.09
2022-09-21T17:19:52.605Z,102389.78
2022-09-21T17:22:20.140Z,102382.81
2022-09-21T17:24:53.903Z,102387.22
2022-09-21T17:27:23.789Z,102388.91
2022-09-21T17:29:50.797Z,102393.19
2022-09-21T17:32:20.496Z,102385.78
2022-09-21T17:34:56.200Z,102382.13
2022-09-21T17:37:25.036Z,102389.25
2022-09-21T17:39:51.564Z,102381.63
2022-09-21T17:42:21.090Z,102384.25
2022-09-21T17:45:03.203Z,102386.63
2022-09-21T17:47:31.082Z,102386.44
2022-09-21T17:50:06.430Z,102389.09
2022-09-21T17:52:51.405Z,102388.88
2022-09-21T17:55:18.277Z,102391.41
2022-09-21T17:57:56.603Z,102393.25
2022-09-21T18:00:25.178Z,102395.16
2022-09-21T18:02:53.790Z,102388.25
2022-09-21T18:05:27.043Z,102388.25
2022-09-21T18:07:53.865Z,102388.66
2022-09-21T18:10:22.665Z,102396.72
2022-09-21T18:13:10.510Z,102392.13
2022-09-21T18:15:53.690Z,102394.00
2022-09-21T18:18:31.747Z,102397.03
2022-09-21T18:21:04.414Z,102395.06
2022-09-21T18:24:03.254Z,102407.28
2022-09-21T18:26:30.114Z,102398.25
2022-09-21T18:28:59.494Z,102406.66
2022-09-21T18:31:48.970Z,102404.69
2022-09-21T18:34:58.359Z,102406.50
2022-09-21T18:37:31.290Z,102403.88
2022-09-21T18:40:21.857Z,102409.28
2022-09-21T18:42:55.670Z,102408.16
2022-09-21T18:45:28.303Z,102408.59
2022-09-21T18:48:06.682Z,102408.06
2022-09-21T18:50:58.199Z,102410.16
2022-09-21T18:53:53.666Z,102403.31
2022-09-21T18:56:20.451Z,102409.09
2022-09-21T18:58:47.837Z,102407.47
2022-09-21T19:01:16.909Z,102404.13
2022-09-21T19:03:49.711Z,102410.16
2022-09-21T19:06:27.299Z,102410.25
2022-09-21T19:08:56.685Z,102412.09
2022-09-21T19:11:32.387Z,102414.31
2022-09-21T19:14:17.500Z,102413.66
2022-09-21T19:16:53.198Z,102417.38
2022-09-21T19:19:45.739Z,102410.53
2022-09-21T19:22:18.714Z,102413.59
2022-09-21T19:24:58.322Z,102419.72
2022-09-21T19:27:27.884Z,102414.53
2022-09-21T19:30:04.941Z,102410.22
2022-09-21T19:32:36.054Z,102408.38
2022-09-21T19:35:27.690Z,102409.25
2022-09-21T19:37:56.527Z,102414.78
2022-09-21T19:40:26.008Z,102413.16
2022-09-21T19:43:16.300Z,102417.72
2022-09-21T19:46:10.353Z,102420.09
2022-09-21T19:48:48.550Z,102415.88
2022-09-21T19:51:39.450Z,102415.97
2022-09-21T19:54:33.427Z,102420.44
2022-09-21T19:57:19.338Z,102415.22
2022-09-21T19:59:46.918Z,102416.41
2022-09-21T20:02:28.449Z,102410.88
2022-09-21T20:05:08.716Z,102422.69
2022-09-21T20:07:54.473Z,102411.97
2022-09-21T20:10:28.753Z,102417.28
2022-09-21T20:13:04.841Z,102419.00
2022-09-21T20:15:39.969Z,102415.63
2022-09-21T20:18:29.597Z,102418.53
2022-09-21T20:20:57.522Z,102424.84
2022-09-21T20:23:24.286Z,102426.69
2022-09-21T20:26:00.570Z,102421.38
2022-09-21T20:28:27.354Z,102424.28
2022-09-21T20:30:54.680Z,102428.09
2022-09-21T20:33:24.040Z,102423.84
2022-09-21T20:35:55.684Z,102422.44
2022-09-21T20:38:23.153Z,102421.78
2022-09-21T20:40:49.764Z,102413.00
2022-09-21T20:43:16.273Z,102414.94
2022-09-21T20:45:47.665Z,102413.31
2022-09-21T20:48:14.351Z,102412.78
2022-09-21T20:50:46.504Z,102409.41
2022-09-21T20:53:13.182Z,102415.78
2022-09-21T20:55:41.238Z,102402.34
2022-09-21T20:58:11.474Z,102413.94
2022-09-21T21:00:38.108Z,102407.78
2022-09-21T21:03:05.216Z,102417.63
2022-09-21T21:05:33.436Z,102416.88
2022-09-21T21:08:00.241Z,102410.69
2022-09-21T21:10:26.797Z,102417.09
2022-09-21T21:12:53.502Z,102421.63
2022-09-21T21:15:21.228Z,102420.09
2022-09-21T21:17:48.684Z,102417.72
2022-09-21T21:20:18.490Z,102417.16
2022-09-21T21:22:48.136Z,102409.25
2022-09-21T21:25:16.363Z,102416.72
2022-09-21T21:27:42.928Z,102417.78
2022-09-21T21:30:10.461Z,102410.81
2022-09-21T21:32:37.277Z,102411.88
2022-09-21T21:35:04.846Z,102409.34
2022-09-21T21:37:31.355Z,102410.31
2022-09-21T21:39:58.456Z,102410.41
2022-09-21T21:42:25.042Z,102413.22
2022-09-21T21:44:56.107Z,102407.16
2022-09-21T21:50:10.600Z,102411.22
2022-09-21T21:52:37.771Z,102403.22
2022-09-21T21:55:10.021Z,102404.41
2022-09-21T21:57:36.522Z,102403.63
2022-09-21T22:00:04.710Z,102405.66
2022-09-21T22:02:31.584Z,102398.72
2022-09-21T22:04:59.141Z,102404.34
2022-09-21T22:07:25.598Z,102397.38
2022-09-21T22:09:52.075Z,102398.47
2022-09-21T22:12:18.558Z,102400.41
2022-09-21T22:14:46.476Z,102397.03
2022-09-21T22:17:13.610Z,102397.22
2022-09-21T22:19:40.307Z,102397.53
2022-09-21T22:22:06.777Z,102399.56
2022-09-21T22:24:34.853Z,102394.34
2022-09-21T22:27:01.413Z,102395.41
2022-09-21T22:29:27.884Z,102393.88
2022-09-21T22:31:55.500Z,102394.91
2022-09-21T22:34:24.890Z,102397.81
2022-09-21T22:36:51.438Z,102398.00
2022-09-21T22:39:18.217Z,102400.06
2022-09-21T22:41:44.807Z,102399.28
2022-09-21T22:44:15.905Z,102404.00
2022-09-21T22:46:42.444Z,102397.84
2022-09-21T22:49:08.985Z,102397.06
2022-09-21T22:51:36.083Z,102398.13
2022-09-21T22:54:02.918Z,102398.41
2022-09-21T22:56:31.555Z,102396.88
2022-09-21T22:59:00.998Z,102397.06
2022-09-21T23:01:30.262Z,102398.31
2022-09-21T23:04:06.975Z,102394.94
2022-09-21T23:06:36.008Z,102397.81
2022-09-21T23:09:06.487Z,102398.19
2022-09-21T23:11:38.678Z,102394.81
2022-09-21T23:14:11.250Z,102387.94
2022-09-21T23:16:38.073Z,102392.69
2022-09-21T23:19:04.777Z,102382.25
2022-09-21T23:21:31.510Z,102387.03
2022-09-21T23:24:01.837Z,102383.84
2022-09-21T23:26:30.748Z,102387.88
2022-09-21T23:29:03.508Z,102385.38
2022-09-21T23:31:31.761Z,102390.00
2022-09-21T23:34:04.603Z,102382.16
2022-09-21T23:36:32.555Z,102388.63
2022-09-21T23:38:59.840Z,102381.56
2022-09-21T23:41:29.794Z,102383.41
2022-09-21T23:43:57.860Z,102382.44
2022-09-21T23:46:28.211Z,102381.47
2022-09-21T23:48:54.877Z,102383.22
2022-09-21T23:51:22.041Z,102375.22
2022-09-21T23:53:52.017Z,102377.03
2022-09-21T23:56:21.493Z,102372.59
2022-09-21T23:58:49.339Z,102376.34
